Airfield :
LOGIN :

Register | Disclaimer

   EN    FR    IT 

 










Legend :    VFR   Marginal VFR   IFR   Intensive IFR   Very Intensive IFR
Visi :
Ceiling :
>= 8 km
>= 3000ft
5 to 8 km
1000 to 3000 ft
1500m to 5 km
500 to 1000 ft
800 to 1500m
200 to 500 ft
< 800m
< 200 ft
Symbols :   Thunderstorms  Fog  Heavy snow  Heavy precipitations  Wind > 20 kt
SIGMETs :     Misc.  Thunderstorms  Icing  Turbulence  Mountain Waves  Volcanic Ashes






- Airport Elevation : 82 ft
- IATA code : QIE


LFMI - Istres

CURRENT METAR :
  • 070730Z AUTO 34021KT 9999 3200 NSC 24/08 Q1017 TEMPO 34015G25KT

EXPIRED METARs :
  • 070700Z AUTO 35019KT 330V040 9999 3400 NSC 23/08 Q1017 TEMPO 34015G25KT
  • 070630Z AUTO 35021KT 9999 3700 NSC 23/08 Q1017 TEMPO 34015G25KT
  • 070600Z AUTO 35020KT CAVOK 22/07 Q1017 TEMPO 34015G25KT
  • 070530Z AUTO 34020KT CAVOK 22/07 Q1017 TEMPO 34015G25KT
  • 070500Z AUTO 34019KT CAVOK 22/07 Q1017 TEMPO 34015G25KT
  • 070430Z AUTO 34018KT CAVOK 21/07 Q1017 TEMPO 34015G25KT

TAF TAF LFMI
Valid from the 07 at 03:00 until the 08 at 03:00 UTC


070200Z 0703/0803 34020G35KT CAVOK TX33/0712Z TN21/0704Z
TEMPO 0703/0713 34015G25KT
TEMPO 0713/0803 33030G40KT



MET'MAP, your aeronautical weather chart ! - Copyright ORBIFLY December 2007 - Disclaimer

ORBIFLY MET'MAP TEAM :

Programming & Development : Alexandra Zaïnal
Original concept : Baudouin d'Aumeries
Technical & hardware support : Manuel Goepfert
Assistance : Marc-Olivier Méhu




SOURCES & CREDITS :

   NOAA